Time;durP1;ratioP1;P1;durP2;ratioP2;P2;SDS_P1;SDS_P2;PMS_P1;PMS_P2;Temp;Humidity;BMP_temperature;BMP_pressure;BME280_temperature;BME280_humidity;BME280_pressure;Samples;Min_cycle;Max_cycle;Signal;HPM_P1;HPM_P2
2022/07/03 05:14:48;;;;;;;2.90;2.70;;;17.50;99.90;;;;;;5062717;28;20977;-84
2022/07/03 05:17:14;;;;;;;2.70;2.50;;;17.60;99.90;;;;;;5064385;28;20455;-84
2022/07/03 05:19:41;;;;;;;2.90;2.70;;;17.80;99.90;;;;;;5063536;28;20458;-83
2022/07/03 05:22:08;;;;;;;3.00;2.80;;;17.80;99.90;;;;;;5064400;28;20479;-84
2022/07/03 05:24:34;;;;;;;2.67;2.57;;;17.90;99.90;;;;;;5058498;28;20495;-84
2022/07/03 05:27:01;;;;;;;2.67;2.50;;;18.00;99.90;;;;;;5045004;28;20452;-84
2022/07/03 05:29:28;;;;;;;3.00;2.67;;;18.10;99.90;;;;;;5048756;28;20523;-85
2022/07/03 05:31:56;;;;;;;2.77;2.57;;;18.20;99.90;;;;;;5059818;28;20444;-83
2022/07/03 05:34:22;;;;;;;3.40;3.10;;;18.30;99.90;;;;;;5043694;28;20444;-84
2022/07/03 05:36:50;;;;;;;2.37;2.27;;;18.40;99.90;;;;;;5044890;28;20968;-84
2022/07/03 05:39:37;;;;;;;3.43;3.23;;;18.50;99.90;;;;;;5063539;28;20448;-84
2022/07/03 05:42:05;;;;;;;2.80;2.40;;;18.60;99.90;;;;;;5059350;28;20452;-84
2022/07/03 05:44:31;;;;;;;3.30;2.50;;;18.70;99.90;;;;;;5042995;28;20499;-83
2022/07/03 05:46:59;;;;;;;2.80;2.60;;;18.80;99.90;;;;;;5042996;28;20821;-84
2022/07/03 05:49:26;;;;;;;3.63;3.33;;;18.90;99.90;;;;;;5042302;28;20462;-84
2022/07/03 05:51:53;;;;;;;2.70;2.60;;;19.00;99.90;;;;;;5060156;28;20448;-84
2022/07/03 05:54:20;;;;;;;2.83;2.73;;;19.20;99.90;;;;;;5062488;28;20937;-84
2022/07/03 05:56:46;;;;;;;2.27;2.07;;;19.20;99.90;;;;;;5045133;28;20457;-84
2022/07/03 05:59:13;;;;;;;3.00;2.80;;;19.30;99.90;;;;;;5043362;28;20456;-84
2022/07/03 06:01:40;;;;;;;2.50;2.40;;;19.50;99.90;;;;;;5056708;28;20456;-84
2022/07/03 06:04:08;;;;;;;2.00;1.90;;;19.50;99.90;;;;;;5058450;28;20484;-84
2022/07/03 06:06:35;;;;;;;2.50;2.30;;;19.60;99.90;;;;;;5039088;28;20450;-84
2022/07/03 06:09:02;;;;;;;3.07;2.70;;;19.70;99.90;;;;;;5038657;28;20449;-84
2022/07/03 06:11:28;;;;;;;2.47;2.30;;;19.80;99.90;;;;;;5039911;28;20449;-84
2022/07/03 06:13:55;;;;;;;2.40;2.30;;;20.00;99.90;;;;;;5056804;28;20473;-84
2022/07/03 06:16:22;;;;;;;2.37;2.27;;;20.00;99.90;;;;;;5058587;28;20456;-84
2022/07/03 06:18:49;;;;;;;2.30;2.13;;;20.10;99.90;;;;;;5044441;28;20455;-84
2022/07/03 06:21:17;;;;;;;2.00;1.90;;;20.20;99.90;;;;;;5047413;28;20454;-84
2022/07/03 06:23:44;;;;;;;2.20;2.10;;;20.30;99.90;;;;;;5056693;28;20496;-84
2022/07/03 06:26:10;;;;;;;2.00;1.90;;;20.30;99.90;;;;;;5048082;28;20458;-84
2022/07/03 06:28:37;;;;;;;2.00;1.80;;;20.50;99.90;;;;;;5036275;28;20459;-84
2022/07/03 06:31:04;;;;;;;2.60;2.50;;;20.60;99.90;;;;;;5042119;28;20454;-83
2022/07/03 06:33:31;;;;;;;1.90;1.80;;;20.70;99.90;;;;;;5054440;28;20468;-84
2022/07/03 06:35:57;;;;;;;2.47;2.30;;;20.80;99.90;;;;;;5037279;28;20451;-84
2022/07/03 06:38:26;;;;;;;2.17;1.97;;;21.00;99.90;;;;;;5048605;28;20453;-84
2022/07/03 06:40:52;;;;;;;2.40;2.30;;;20.90;99.90;;;;;;5056506;28;20453;-84
2022/07/03 06:43:19;;;;;;;2.20;2.10;;;21.00;99.90;;;;;;5040489;28;20867;-83
2022/07/03 06:45:46;;;;;;;2.20;2.10;;;21.10;99.90;;;;;;5036736;28;20450;-85
2022/07/03 06:48:13;;;;;;;2.37;2.27;;;21.10;99.90;;;;;;5049404;28;20972;-84
2022/07/03 06:50:39;;;;;;;2.73;1.90;;;21.30;99.90;;;;;;5055366;28;20558;-84
2022/07/03 06:53:06;;;;;;;2.20;1.97;;;21.40;99.90;;;;;;5053774;28;20479;-84
2022/07/03 06:55:34;;;;;;;1.80;1.70;;;21.50;99.90;;;;;;5056230;28;20462;-85
2022/07/03 06:58:01;;;;;;;1.90;1.80;;;21.50;99.90;;;;;;5037591;28;20519;-84
2022/07/03 07:00:28;;;;;;;1.93;1.83;;;21.50;99.90;;;;;;5047014;28;20462;-84
2022/07/03 07:02:55;;;;;;;2.00;1.90;;;21.60;99.90;;;;;;5035153;28;20476;-84
2022/07/03 07:05:22;;;;;;;2.70;1.60;;;21.60;99.90;;;;;;5048908;28;20462;-83
2022/07/03 07:07:48;;;;;;;1.80;1.70;;;21.70;99.90;;;;;;5040723;28;20991;-84
2022/07/03 07:10:15;;;;;;;1.93;1.83;;;21.80;99.90;;;;;;5047532;28;20455;-83
2022/07/03 07:12:43;;;;;;;2.13;2.00;;;21.80;99.90;;;;;;5050194;28;20483;-84
2022/07/03 07:15:11;;;;;;;2.20;2.10;;;22.00;99.90;;;;;;5053646;28;20452;-84
2022/07/03 07:17:37;;;;;;;2.10;2.00;;;22.00;99.90;;;;;;5047510;28;20828;-84
2022/07/03 07:20:05;;;;;;;1.60;1.50;;;22.20;99.90;;;;;;5034182;28;20459;-84
2022/07/03 07:22:32;;;;;;;2.17;2.07;;;22.20;99.90;;;;;;5051997;28;20472;-84
2022/07/03 07:24:59;;;;;;;1.90;1.80;;;22.20;99.90;;;;;;5048610;28;20492;-84
2022/07/03 07:27:25;;;;;;;1.70;1.60;;;22.30;99.90;;;;;;5040370;28;20493;-84
2022/07/03 07:29:53;;;;;;;2.20;1.97;;;22.30;98.80;;;;;;5040739;28;20841;-84
2022/07/03 07:32:20;;;;;;;2.10;1.90;;;22.40;99.10;;;;;;5041159;28;20465;-84
2022/07/03 07:34:47;;;;;;;1.73;1.33;;;22.50;98.80;;;;;;5046353;28;20471;-83
2022/07/03 07:37:14;;;;;;;2.00;1.90;;;22.60;98.50;;;;;;5042777;28;20448;-84
2022/07/03 07:39:40;;;;;;;1.67;1.57;;;22.70;98.50;;;;;;5041249;28;20973;-84
2022/07/03 07:42:07;;;;;;;1.90;1.80;;;22.70;97.90;;;;;;5042831;28;20440;-84
2022/07/03 07:44:34;;;;;;;1.63;1.53;;;22.70;98.00;;;;;;5043055;28;20489;-84
2022/07/03 07:47:02;;;;;;;1.80;1.70;;;22.80;97.70;;;;;;5041583;28;20452;-84
2022/07/03 07:49:29;;;;;;;2.00;1.83;;;22.80;97.70;;;;;;5043100;28;20965;-84
2022/07/03 07:51:55;;;;;;;2.03;1.83;;;23.00;97.60;;;;;;5040507;28;20441;-84
2022/07/03 07:54:22;;;;;;;1.30;1.30;;;23.00;97.40;;;;;;5040650;28;20855;-84
2022/07/03 07:56:49;;;;;;;1.63;1.53;;;23.00;96.50;;;;;;5040877;28;20445;-84
2022/07/03 07:59:16;;;;;;;1.50;1.40;;;23.20;95.50;;;;;;5044279;28;20822;-84
2022/07/03 08:07:12;;;;;;;1.33;1.23;;;23.30;93.40;;;;;;5040280;28;20996;-84
2022/07/03 08:09:39;;;;;;;1.30;1.20;;;23.30;92.00;;;;;;5041936;28;20454;-84
2022/07/03 08:12:06;;;;;;;2.17;1.40;;;23.40;92.60;;;;;;5041864;28;20814;-84
2022/07/03 08:14:33;;;;;;;1.47;1.10;;;23.50;92.10;;;;;;5041919;28;20456;-84
2022/07/03 08:16:59;;;;;;;1.50;1.10;;;23.60;93.00;;;;;;5045422;28;20962;-84
2022/07/03 08:19:27;;;;;;;1.20;1.20;;;23.60;92.30;;;;;;5045957;28;20439;-83
2022/07/03 08:21:54;;;;;;;1.37;1.30;;;23.70;92.20;;;;;;5044000;28;20446;-84
2022/07/03 08:24:21;;;;;;;1.70;1.60;;;23.70;91.40;;;;;;5035067;28;20499;-84
2022/07/03 08:26:48;;;;;;;2.60;1.70;;;23.80;92.20;;;;;;5034191;28;20451;-84
2022/07/03 08:29:14;;;;;;;1.30;1.20;;;23.90;92.10;;;;;;5036805;28;20453;-84
2022/07/03 08:31:41;;;;;;;1.10;1.10;;;24.00;91.50;;;;;;5033438;28;20451;-84
2022/07/03 08:34:08;;;;;;;1.77;1.67;;;24.00;91.10;;;;;;5046879;28;20483;-81
2022/07/03 08:36:37;;;;;;;1.30;1.20;;;24.10;91.00;;;;;;5064715;28;20450;-79
2022/07/03 08:39:04;;;;;;;1.43;1.33;;;24.20;90.00;;;;;;5073839;28;20433;-79
2022/07/03 08:41:32;;;;;;;1.50;1.40;;;24.20;90.30;;;;;;5065622;28;20441;-78
2022/07/03 08:44:00;;;;;;;1.40;1.30;;;24.30;91.50;;;;;;5063661;28;20843;-79
2022/07/03 08:46:31;;;;;;;2.50;1.30;;;24.30;88.90;;;;;;5057568;28;20449;-80
2022/07/03 08:49:00;;;;;;;1.50;1.40;;;24.50;89.10;;;;;;5045805;28;20443;-80
2022/07/03 08:51:27;;;;;;;1.90;1.73;;;24.60;88.20;;;;;;5048200;28;20459;-79
2022/07/03 08:53:55;;;;;;;1.30;1.20;;;24.60;89.60;;;;;;5046914;28;20458;-80
2022/07/03 08:56:23;;;;;;;1.20;1.10;;;24.60;89.20;;;;;;5048299;28;20453;-80
2022/07/03 08:58:50;;;;;;;1.07;1.07;;;24.70;90.20;;;;;;5047081;28;20454;-80
2022/07/03 09:01:18;;;;;;;1.23;1.23;;;24.80;89.80;;;;;;5047044;28;20450;-80
2022/07/03 09:03:46;;;;;;;1.10;1.10;;;24.80;89.10;;;;;;5047900;28;20494;-79
2022/07/03 09:06:14;;;;;;;1.43;1.23;;;24.90;87.80;;;;;;5045343;28;20455;-80
2022/07/03 09:08:41;;;;;;;1.10;1.10;;;24.90;85.90;;;;;;5048168;28;20454;-81
2022/07/03 09:11:12;;;;;;;1.90;1.20;;;25.00;87.30;;;;;;5046996;28;20459;-80
2022/07/03 09:13:38;;;;;;;1.50;1.40;;;25.10;86.60;;;;;;5046293;28;20478;-80
2022/07/03 09:16:06;;;;;;;1.53;1.43;;;25.10;87.00;;;;;;5047045;28;20457;-80
2022/07/03 09:18:40;;;;;;;1.40;1.30;;;25.10;86.20;;;;;;5047367;28;20451;-80
2022/07/03 09:21:08;;;;;;;2.10;2.00;;;25.30;84.00;;;;;;5045219;28;20454;-80
2022/07/03 09:23:39;;;;;;;1.00;1.00;;;25.30;83.80;;;;;;5048318;28;20469;-81
2022/07/03 09:26:07;;;;;;;0.80;0.80;;;25.30;83.30;;;;;;5047985;28;20454;-80
2022/07/03 09:28:47;;;;;;;1.17;1.07;;;25.30;82.90;;;;;;5048087;28;20465;-81
2022/07/03 09:31:15;;;;;;;1.33;1.23;;;25.30;81.10;;;;;;5047126;28;20538;-80
2022/07/03 09:33:54;;;;;;;1.10;1.10;;;25.30;79.40;;;;;;5059520;28;20478;-79
2022/07/03 09:36:22;;;;;;;1.53;1.10;;;25.40;75.80;;;;;;5039855;28;20448;-82
2022/07/03 09:38:49;;;;;;;0.90;0.90;;;25.50;75.40;;;;;;5051847;28;20505;-81
2022/07/03 09:41:16;;;;;;;0.97;0.70;;;25.60;76.50;;;;;;5059098;28;20449;-81
2022/07/03 09:43:44;;;;;;;1.00;1.00;;;25.80;74.10;;;;;;5052417;28;20561;-82
2022/07/03 09:46:11;;;;;;;1.33;1.17;;;26.00;76.50;;;;;;5046573;28;20849;-81
2022/07/03 09:48:39;;;;;;;1.17;1.10;;;26.20;74.70;;;;;;5039658;28;20550;-82
2022/07/03 09:51:23;;;;;;;0.90;0.90;;;26.40;76.10;;;;;;5051448;28;20446;-83
2022/07/03 09:53:53;;;;;;;3.30;1.20;;;26.50;74.00;;;;;;5038841;28;20480;-82
2022/07/03 09:56:20;;;;;;;2.10;1.50;;;26.70;75.00;;;;;;5040818;28;20450;-82
2022/07/03 09:59:03;;;;;;;1.63;1.53;;;26.80;73.90;;;;;;5039041;28;20452;-82
2022/07/03 10:01:30;;;;;;;0.80;0.80;;;26.90;75.40;;;;;;5042264;28;20454;-82
2022/07/03 10:04:19;;;;;;;1.20;1.20;;;27.10;73.40;;;;;;5051048;28;20477;-82
2022/07/03 10:06:48;;;;;;;1.33;1.23;;;27.10;72.00;;;;;;5052921;28;20459;-82
2022/07/03 10:09:16;;;;;;;1.00;1.00;;;27.20;71.10;;;;;;5042393;28;20469;-81
2022/07/03 10:11:44;;;;;;;1.10;1.00;;;27.30;71.00;;;;;;5049597;28;20865;-81
2022/07/03 10:14:14;;;;;;;1.03;1.03;;;27.40;72.80;;;;;;5051965;28;20485;-81
2022/07/03 10:16:42;;;;;;;0.97;0.97;;;27.40;73.10;;;;;;5039706;28;20456;-82
2022/07/03 10:19:15;;;;;;;1.10;1.00;;;27.60;71.80;;;;;;5037506;28;20460;-87
2022/07/03 10:21:53;;;;;;;0.80;0.80;;;27.80;70.50;;;;;;5034905;28;20452;-86
2022/07/03 10:24:22;;;;;;;1.13;1.10;;;27.80;67.30;;;;;;5058026;28;20503;-81
2022/07/03 10:26:50;;;;;;;1.20;1.10;;;27.80;69.60;;;;;;5050603;28;20460;-81
2022/07/03 10:29:20;;;;;;;1.23;1.00;;;28.00;69.70;;;;;;5046850;28;20455;-82
2022/07/03 10:31:47;;;;;;;1.33;1.23;;;28.10;70.50;;;;;;5058098;28;20456;-81
2022/07/03 10:34:18;;;;;;;1.70;1.20;;;28.00;68.00;;;;;;5057451;28;20574;-81
2022/07/03 10:36:47;;;;;;;1.33;1.23;;;28.10;67.40;;;;;;5050181;28;20479;-82
2022/07/03 10:39:24;;;;;;;1.43;1.33;;;28.20;68.90;;;;;;5040573;28;20452;-83
2022/07/03 10:45:09;;;;;;;1.67;1.27;;;28.20;68.10;;;;;;5043391;28;20485;-84
2022/07/03 10:47:40;;;;;;;1.30;1.30;;;28.50;68.20;;;;;;5054885;28;20457;-83
2022/07/03 10:50:11;;;;;;;1.30;1.20;;;28.70;66.80;;;;;;5031824;28;20942;-84
2022/07/03 10:52:39;;;;;;;1.70;1.60;;;29.00;65.70;;;;;;5048206;28;20472;-85
2022/07/03 10:55:08;;;;;;;2.43;1.67;;;29.30;65.30;;;;;;5051908;28;20502;-85
2022/07/03 10:57:36;;;;;;;1.40;1.30;;;29.70;67.50;;;;;;5047436;28;20481;-82
2022/07/03 11:00:12;;;;;;;1.10;1.10;;;29.90;64.70;;;;;;5051731;28;20454;-87
2022/07/03 11:02:40;;;;;;;1.43;1.33;;;29.70;63.60;;;;;;5034548;28;20473;-87
2022/07/03 11:05:26;;;;;;;1.47;1.47;;;29.60;62.50;;;;;;5037531;28;20543;-85
2022/07/03 11:08:08;;;;;;;1.50;1.40;;;29.60;63.90;;;;;;5050950;28;20447;-85
2022/07/03 11:10:42;;;;;;;1.80;1.70;;;30.10;62.40;;;;;;5047111;28;20446;-84
2022/07/03 11:13:22;;;;;;;1.70;1.60;;;30.70;62.80;;;;;;5032303;28;20481;-84
2022/07/03 11:15:52;;;;;;;1.57;1.47;;;31.40;63.50;;;;;;5034008;28;20529;-83
2022/07/03 11:18:28;;;;;;;1.20;1.10;;;31.90;57.50;;;;;;5034970;28;20445;-84
2022/07/03 11:21:21;;;;;;;1.47;0.90;;;32.30;55.30;;;;;;5037104;28;20525;-83
2022/07/03 11:24:16;;;;;;;1.10;1.10;;;32.40;55.10;;;;;;5045854;28;20471;-84
2022/07/03 11:26:46;;;;;;;1.37;1.27;;;32.70;53.60;;;;;;5051286;28;20470;-85
2022/07/03 11:29:30;;;;;;;1.10;1.10;;;33.30;54.70;;;;;;5039372;28;20456;-85
2022/07/03 11:32:42;;;;;;;1.10;1.00;;;33.70;50.70;;;;;;5038151;28;20452;-84
2022/07/03 11:35:08;;;;;;;1.10;1.10;;;33.80;48.60;;;;;;5022521;28;20452;-83
2022/07/03 11:37:36;;;;;;;0.97;0.97;;;34.10;48.40;;;;;;5052041;28;20453;-83
2022/07/03 11:40:04;;;;;;;2.47;1.30;;;34.20;49.70;;;;;;5039354;28;20449;-83
2022/07/03 11:42:34;;;;;;;1.30;1.20;;;34.00;49.30;;;;;;5054081;28;20506;-83
2022/07/03 11:45:01;;;;;;;1.00;0.83;;;34.00;48.20;;;;;;5039666;28;20477;-83
2022/07/03 11:47:30;;;;;;;1.03;1.03;;;34.20;49.50;;;;;;5049969;28;20453;-83
2022/07/03 11:49:57;;;;;;;1.67;1.57;;;34.70;47.80;;;;;;5047162;28;20457;-83
2022/07/03 11:52:33;;;;;;;1.00;1.00;;;34.90;46.20;;;;;;5037466;28;20476;-84
2022/07/03 11:54:59;;;;;;;1.13;1.13;;;35.50;45.30;;;;;;5055549;28;20506;-83
2022/07/03 11:57:26;;;;;;;0.93;0.93;;;35.50;45.60;;;;;;5054322;28;20456;-83
2022/07/03 12:00:03;;;;;;;0.90;0.90;;;35.50;45.10;;;;;;5054570;28;20953;-82
2022/07/03 12:02:31;;;;;;;1.00;0.90;;;35.20;45.20;;;;;;5056463;28;20472;-82
2022/07/03 12:04:58;;;;;;;1.07;1.07;;;35.60;45.60;;;;;;5054316;28;20476;-83
2022/07/03 12:07:25;;;;;;;2.03;1.40;;;35.80;43.60;;;;;;5048001;28;20468;-83
2022/07/03 12:09:52;;;;;;;1.27;1.17;;;36.30;45.10;;;;;;5034433;28;20460;-84
2022/07/03 12:12:24;;;;;;;1.00;0.90;;;36.80;41.70;;;;;;5041497;28;20807;-83
2022/07/03 12:14:56;;;;;;;1.03;1.00;;;36.70;42.00;;;;;;5056084;28;20440;-83
2022/07/03 12:17:24;;;;;;;1.10;1.00;;;36.80;43.50;;;;;;5051905;28;20441;-83
2022/07/03 12:19:54;;;;;;;3.07;1.27;;;36.90;39.70;;;;;;5045888;28;20440;-82
2022/07/03 12:22:25;;;;;;;0.90;0.90;;;37.10;39.40;;;;;;5037436;28;20978;-82
2022/07/03 12:25:03;;;;;;;1.37;1.20;;;37.10;40.70;;;;;;5048688;28;20485;-82
2022/07/03 12:27:30;;;;;;;1.00;1.00;;;37.00;39.90;;;;;;5045913;28;20942;-82
2022/07/03 12:29:58;;;;;;;1.57;1.33;;;37.20;37.20;;;;;;5048868;28;20444;-82
2022/07/03 12:32:25;;;;;;;1.63;1.20;;;37.40;37.40;;;;;;5048625;28;20476;-82
2022/07/03 12:34:53;;;;;;;1.30;1.23;;;37.90;37.90;;;;;;5046291;28;20444;-82
2022/07/03 12:37:33;;;;;;;0.80;0.80;;;38.30;38.00;;;;;;5048052;28;20451;-82
2022/07/03 12:40:00;;;;;;;1.10;1.10;;;38.40;36.30;;;;;;5047730;28;20437;-82
2022/07/03 12:42:26;;;;;;;1.93;0.90;;;38.50;36.60;;;;;;5050287;28;20523;-82
2022/07/03 12:44:58;;;;;;;2.43;1.20;;;38.60;37.00;;;;;;5052711;28;20484;-82
2022/07/03 12:47:25;;;;;;;5.30;1.60;;;38.90;35.80;;;;;;5057623;28;20570;-82
2022/07/03 12:49:58;;;;;;;1.43;1.00;;;39.00;36.30;;;;;;5038077;28;20456;-82
2022/07/03 12:52:25;;;;;;;0.90;0.90;;;39.40;34.80;;;;;;5054903;28;20480;-82
2022/07/03 12:54:52;;;;;;;0.97;0.97;;;39.70;34.10;;;;;;5060258;28;20448;-82
2022/07/03 13:00:06;;;;;;;1.00;1.00;;;39.50;34.00;;;;;;5039868;28;20432;-83
2022/07/03 13:02:33;;;;;;;1.57;1.47;;;38.90;33.80;;;;;;5037974;28;20473;-83
2022/07/03 13:05:02;;;;;;;1.10;1.00;;;38.60;35.20;;;;;;5037509;28;20580;-84
2022/07/03 13:07:30;;;;;;;3.03;1.40;;;38.70;33.80;;;;;;5053927;28;20457;-83
2022/07/03 13:10:01;;;;;;;0.97;0.97;;;38.80;34.60;;;;;;5058724;28;20448;-83
2022/07/03 13:12:28;;;;;;;0.90;0.90;;;39.00;33.40;;;;;;5041927;28;20470;-83
2022/07/03 13:14:59;;;;;;;0.90;0.90;;;38.80;32.90;;;;;;5038836;28;20453;-83
2022/07/03 13:17:58;;;;;;;1.20;1.10;;;39.30;32.80;;;;;;5052092;28;20460;-83
2022/07/03 13:20:28;;;;;;;1.80;1.10;;;39.80;32.00;;;;;;5054704;28;21092;-84
2022/07/03 13:22:56;;;;;;;1.10;1.10;;;40.40;31.50;;;;;;5038285;28;20508;-83
2022/07/03 13:25:23;;;;;;;0.73;0.73;;;40.70;31.20;;;;;;5038781;28;20512;-83
2022/07/03 13:27:50;;;;;;;1.13;1.13;;;41.30;31.90;;;;;;5056003;28;20448;-83
2022/07/03 13:30:18;;;;;;;0.80;0.80;;;41.80;29.60;;;;;;5058257;28;20451;-83
2022/07/03 13:32:45;;;;;;;0.83;0.83;;;41.90;30.00;;;;;;5042067;28;20483;-83
2022/07/03 13:35:13;;;;;;;1.03;1.03;;;41.80;29.50;;;;;;5049466;28;20455;-83
2022/07/03 13:37:41;;;;;;;1.10;1.00;;;42.30;29.80;;;;;;5041260;28;20461;-83
2022/07/03 13:40:08;;;;;;;1.30;1.20;;;42.60;28.70;;;;;;5049624;28;20448;-83
2022/07/03 13:42:35;;;;;;;1.00;1.00;;;42.70;28.70;;;;;;5058443;28;20905;-83
2022/07/03 13:45:01;;;;;;;1.03;0.93;;;43.10;29.80;;;;;;5047694;28;20457;-83
2022/07/03 13:47:28;;;;;;;0.70;0.70;;;43.40;28.30;;;;;;5038898;28;20471;-83
2022/07/03 13:49:55;;;;;;;0.80;0.80;;;43.00;27.20;;;;;;5046919;28;20548;-82
2022/07/03 13:52:22;;;;;;;1.53;0.70;;;42.90;27.70;;;;;;5057557;28;20473;-83
2022/07/03 13:54:50;;;;;;;1.20;1.20;;;43.00;27.90;;;;;;5049555;28;20818;-83
2022/07/03 13:57:16;;;;;;;1.40;1.17;;;42.10;27.80;;;;;;5036970;28;20449;-82
2022/07/03 13:59:43;;;;;;;1.10;1.00;;;41.40;27.40;;;;;;5056414;28;20453;-83
2022/07/03 14:02:10;;;;;;;2.10;1.10;;;40.40;28.30;;;;;;5056000;28;20467;-82
2022/07/03 14:04:38;;;;;;;1.70;1.27;;;39.20;30.10;;;;;;5043779;28;20456;-82
2022/07/03 14:07:05;;;;;;;1.53;1.43;;;38.90;32.10;;;;;;5044061;28;20476;-82
2022/07/03 14:09:32;;;;;;;1.80;1.17;;;38.30;34.00;;;;;;5046915;28;20939;-82
2022/07/03 14:12:00;;;;;;;1.37;1.33;;;37.70;34.60;;;;;;5044907;28;20441;-82
2022/07/03 14:14:27;;;;;;;1.53;1.43;;;36.50;36.20;;;;;;5044401;28;20449;-82
2022/07/03 14:16:54;;;;;;;1.33;1.30;;;36.20;38.20;;;;;;5049357;28;20440;-82
2022/07/03 14:19:21;;;;;;;1.40;1.40;;;36.20;37.60;;;;;;5046076;28;20446;-82
2022/07/03 14:21:48;;;;;;;1.27;1.27;;;36.20;36.40;;;;;;5044752;28;20449;-82
2022/07/03 14:24:14;;;;;;;2.23;2.13;;;36.10;35.90;;;;;;5047818;28;21103;-82
2022/07/03 14:32:29;;;;;;;1.60;1.50;;;35.90;37.20;;;;;;5049826;28;20448;-82
2022/07/03 14:34:56;;;;;;;1.33;1.23;;;36.00;38.70;;;;;;5047305;28;20448;-82
2022/07/03 14:37:23;;;;;;;1.37;1.33;;;36.00;38.90;;;;;;5045340;28;20445;-82
2022/07/03 14:39:50;;;;;;;2.60;1.40;;;36.00;39.90;;;;;;5041657;28;20858;-82
2022/07/03 14:42:17;;;;;;;2.53;1.50;;;35.90;39.40;;;;;;5049851;28;20867;-82
2022/07/03 14:44:46;;;;;;;1.50;1.40;;;35.60;38.70;;;;;;5052024;28;20455;-82
2022/07/03 14:47:12;;;;;;;1.90;1.80;;;35.60;39.20;;;;;;5052522;28;20996;-81
2022/07/03 14:49:39;;;;;;;1.33;1.23;;;35.60;39.00;;;;;;5051017;28;20448;-82
2022/07/03 14:52:07;;;;;;;2.50;1.43;;;35.30;39.40;;;;;;5044302;28;20457;-81
2022/07/03 14:54:35;;;;;;;2.33;1.77;;;35.40;39.30;;;;;;5046168;28;20465;-82
2022/07/03 14:57:03;;;;;;;1.40;1.30;;;35.40;39.60;;;;;;5046573;28;20441;-83
2022/07/03 14:59:39;;;;;;;1.53;1.43;;;34.80;40.70;;;;;;5045030;28;20460;-82
2022/07/03 15:02:10;;;;;;;1.37;1.30;;;34.60;40.90;;;;;;5044019;28;20448;-83
2022/07/03 15:04:52;;;;;;;1.33;1.23;;;34.60;40.80;;;;;;5047083;28;20512;-83
2022/07/03 15:07:21;;;;;;;1.80;1.70;;;34.60;41.50;;;;;;5040705;28;20484;-83
2022/07/03 15:09:59;;;;;;;1.23;1.23;;;34.30;40.60;;;;;;5049812;28;20448;-83
2022/07/03 15:12:27;;;;;;;2.37;1.67;;;34.10;41.60;;;;;;5045590;28;20479;-82
2022/07/03 15:14:55;;;;;;;1.77;1.67;;;33.70;42.10;;;;;;5041150;28;20822;-83
2022/07/03 15:17:23;;;;;;;1.73;1.60;;;33.50;44.00;;;;;;5045123;28;20433;-83
2022/07/03 15:19:51;;;;;;;2.93;1.60;;;33.90;44.30;;;;;;5043880;28;20459;-83
2022/07/03 15:22:19;;;;;;;1.63;1.30;;;33.40;42.40;;;;;;5046269;28;20539;-83
2022/07/03 15:24:49;;;;;;;1.57;1.47;;;33.60;43.50;;;;;;5045905;28;20463;-83
2022/07/03 15:27:21;;;;;;;2.10;2.00;;;33.30;42.70;;;;;;5040645;28;20491;-83
2022/07/03 15:29:48;;;;;;;1.27;1.20;;;33.20;43.30;;;;;;5043812;28;20851;-83
2022/07/03 15:32:17;;;;;;;1.30;1.30;;;33.10;43.20;;;;;;5044998;28;20501;-82
2022/07/03 15:34:47;;;;;;;1.37;1.17;;;32.90;43.30;;;;;;5049209;28;20447;-83
2022/07/03 15:37:25;;;;;;;4.23;1.53;;;32.80;43.50;;;;;;5044341;28;20482;-83
2022/07/03 15:40:00;;;;;;;1.77;1.20;;;32.70;42.90;;;;;;5045120;28;20958;-82
2022/07/03 15:42:40;;;;;;;1.93;1.83;;;32.60;43.20;;;;;;5042285;28;20479;-82
2022/07/03 15:45:14;;;;;;;2.07;1.87;;;32.40;44.20;;;;;;5036715;28;20436;-83
2022/07/03 15:47:49;;;;;;;2.10;2.00;;;32.30;44.10;;;;;;5037382;28;20488;-82
2022/07/03 15:50:33;;;;;;;2.40;2.20;;;32.40;45.20;;;;;;5036538;28;20456;-82
2022/07/03 15:53:01;;;;;;;2.53;2.33;;;32.50;44.40;;;;;;5054731;28;20996;-82
2022/07/03 15:55:33;;;;;;;1.87;1.77;;;32.50;43.60;;;;;;5057401;28;20463;-82
2022/07/03 15:58:04;;;;;;;1.77;1.53;;;32.40;44.70;;;;;;5044110;28;20451;-83
2022/07/03 16:00:36;;;;;;;1.57;1.47;;;32.40;45.10;;;;;;5041072;28;20452;-82
2022/07/03 16:03:11;;;;;;;1.43;1.33;;;32.20;44.20;;;;;;5041763;28;20677;-82
2022/07/03 16:05:42;;;;;;;1.73;1.40;;;32.30;44.10;;;;;;5040764;28;20450;-82
2022/07/03 16:08:12;;;;;;;1.50;1.40;;;32.00;43.80;;;;;;5050568;28;20474;-82
2022/07/03 16:10:40;;;;;;;2.80;1.50;;;31.80;44.00;;;;;;5049721;28;20452;-83
2022/07/03 16:13:09;;;;;;;1.70;1.60;;;31.80;44.60;;;;;;5046200;28;20475;-82
2022/07/03 16:15:37;;;;;;;1.37;1.20;;;31.60;44.60;;;;;;5041150;28;20889;-83
2022/07/03 16:18:04;;;;;;;1.50;1.40;;;31.80;45.20;;;;;;5056926;28;20452;-82
2022/07/03 16:20:32;;;;;;;2.13;1.43;;;31.80;45.30;;;;;;5060864;28;20452;-82
2022/07/03 16:23:04;;;;;;;1.57;1.47;;;31.90;44.80;;;;;;5050277;28;20484;-82
2022/07/03 16:25:32;;;;;;;1.43;1.27;;;32.00;44.50;;;;;;5059484;28;20450;-82
2022/07/03 16:28:01;;;;;;;1.77;1.60;;;31.90;44.10;;;;;;5060950;28;21010;-82
2022/07/03 16:30:28;;;;;;;1.53;1.43;;;31.80;44.40;;;;;;5061347;28;20449;-82
2022/07/03 16:32:55;;;;;;;2.03;1.30;;;31.90;45.50;;;;;;5059418;28;20817;-82
2022/07/03 16:35:28;;;;;;;5.30;2.23;;;32.00;45.20;;;;;;5060446;28;20547;-82
2022/07/03 16:37:57;;;;;;;1.50;1.40;;;32.00;45.50;;;;;;5049532;28;20443;-82
2022/07/03 16:40:27;;;;;;;1.57;1.00;;;32.20;45.00;;;;;;5039476;28;20483;-82
2022/07/03 16:42:54;;;;;;;1.37;1.30;;;32.20;44.70;;;;;;5050541;28;20478;-82
2022/07/03 16:45:22;;;;;;;1.30;1.20;;;32.20;44.50;;;;;;5059067;28;20454;-82
2022/07/03 16:47:50;;;;;;;1.63;1.53;;;32.30;44.60;;;;;;5049358;28;20519;-83
2022/07/03 16:50:18;;;;;;;1.60;1.50;;;32.20;44.90;;;;;;5056013;28;20523;-83
2022/07/03 16:52:47;;;;;;;1.90;1.80;;;32.00;44.30;;;;;;5042478;28;20471;-83
2022/07/03 16:55:14;;;;;;;1.70;1.60;;;31.80;45.20;;;;;;5040538;28;20461;-83
2022/07/03 16:57:45;;;;;;;1.63;1.53;;;31.80;44.50;;;;;;5056008;28;20859;-83
2022/07/03 17:00:14;;;;;;;1.70;1.60;;;31.60;44.70;;;;;;5060082;28;20527;-83
2022/07/03 17:02:42;;;;;;;3.27;1.37;;;31.70;45.40;;;;;;5044361;28;20483;-83
2022/07/03 17:05:11;;;;;;;1.10;1.10;;;31.90;45.60;;;;;;5039262;28;20878;-83
2022/07/03 17:07:41;;;;;;;1.20;1.10;;;32.00;44.60;;;;;;5053644;28;20480;-83
2022/07/03 17:10:09;;;;;;;1.60;1.50;;;32.30;44.70;;;;;;5057874;28;20482;-83
2022/07/03 17:12:44;;;;;;;2.00;1.23;;;32.50;44.70;;;;;;5088337;22;20539;-87
2022/07/03 17:35:52;;;;;;;2.07;1.60;;;31.20;45.90;;;;;;5021305;28;20464;-88
2022/07/03 17:38:19;;;;;;;1.97;1.60;;;30.90;46.30;;;;;;5005142;28;20451;-86
2022/07/03 17:40:46;;;;;;;1.73;1.63;;;30.60;46.60;;;;;;5028322;28;20445;-88
2022/07/03 17:43:13;;;;;;;1.70;1.60;;;30.40;47.20;;;;;;5092739;28;20444;-87
2022/07/03 17:45:45;;;;;;;2.37;1.63;;;30.20;47.60;;;;;;5082549;28;20520;-88
2022/07/03 17:48:12;;;;;;;2.37;2.27;;;30.10;48.00;;;;;;5081079;28;20540;-88
2022/07/03 17:50:43;;;;;;;2.70;2.50;;;30.60;48.20;;;;;;5070722;28;20450;-88
2022/07/03 17:53:12;;;;;;;2.97;2.50;;;30.70;47.40;;;;;;5059148;28;20474;-89
2022/07/03 17:55:42;;;;;;;1.80;1.70;;;31.10;47.90;;;;;;5059349;28;20460;-87
2022/07/03 17:58:09;;;;;;;1.40;1.40;;;31.60;46.20;;;;;;5065256;28;20456;-86
2022/07/03 18:00:36;;;;;;;1.50;1.40;;;31.90;46.00;;;;;;5061358;28;20823;-87
2022/07/03 18:03:07;;;;;;;3.53;2.23;;;32.00;45.60;;;;;;5059578;28;20488;-86
2022/07/03 18:05:40;;;;;;;2.43;2.13;;;32.40;45.50;;;;;;5059984;28;20444;-86
2022/07/03 18:08:14;;;;;;;8.13;1.80;;;32.90;45.60;;;;;;5058781;28;20866;-85
2022/07/03 18:10:47;;;;;;;3.67;2.10;;;33.10;44.30;;;;;;5065101;28;20459;-86
2022/07/03 18:13:29;;;;;;;1.77;1.57;;;33.20;43.80;;;;;;5071303;28;20536;-85
2022/07/03 18:15:58;;;;;;;1.70;1.50;;;33.10;43.70;;;;;;5069717;28;20454;-85
2022/07/03 18:18:37;;;;;;;1.50;1.40;;;33.40;44.00;;;;;;5069200;28;20441;-85
2022/07/03 18:21:04;;;;;;;2.00;1.60;;;33.50;43.20;;;;;;5058560;28;20535;-85
2022/07/03 18:29:03;;;;;;;1.53;1.43;;;34.30;42.60;;;;;;4485338;26;20572;-85
2022/07/03 18:31:34;;;;;;;2.20;1.30;;;34.70;42.50;;;;;;5059566;28;20459;-86
2022/07/03 18:34:02;;;;;;;1.67;1.53;;;34.90;42.20;;;;;;5066238;28;20471;-85
2022/07/03 18:36:30;;;;;;;1.60;1.50;;;34.50;41.00;;;;;;5059705;28;20457;-87
2022/07/03 18:39:07;;;;;;;2.03;1.77;;;34.40;41.80;;;;;;5057929;28;20487;-85
2022/07/03 18:41:35;;;;;;;1.67;1.57;;;34.30;41.70;;;;;;5055865;28;20479;-85
2022/07/03 18:44:05;;;;;;;1.70;1.57;;;34.10;42.20;;;;;;5055387;28;20472;-85
2022/07/03 18:46:32;;;;;;;1.70;1.60;;;33.80;42.70;;;;;;5055510;28;20486;-86
2022/07/03 18:49:00;;;;;;;1.93;1.73;;;33.10;43.10;;;;;;5055829;28;20539;-86
2022/07/03 18:51:31;;;;;;;1.77;1.67;;;32.50;43.80;;;;;;5055460;28;20490;-85
2022/07/03 18:54:10;;;;;;;2.67;1.97;;;32.30;44.50;;;;;;5055903;28;20471;-85
2022/07/03 18:56:44;;;;;;;3.50;2.30;;;32.00;44.90;;;;;;5056405;28;20456;-85